Time;durP1;ratioP1;P1;durP2;ratioP2;P2;SDS_P1;SDS_P2;PMS_P1;PMS_P2;Temp;Humidity;BMP_temperature;BMP_pressure;BME280_temperature;BME280_humidity;BME280_pressure;Samples;Min_cycle;Max_cycle;Signal;HPM_P1;HPM_P2
2021/04/23 00:00:47;;;;;;;9.30;6.15;;;;;;;12.07;73.53;97128.72;5038601;28;20041;-70
2021/04/23 00:03:21;;;;;;;9.15;7.25;;;;;;;11.93;74.56;97136.88;5024272;28;20068;-71
2021/04/23 00:05:52;;;;;;;10.10;6.88;;;;;;;11.95;74.75;97131.72;5023346;28;20188;-70
2021/04/23 00:08:19;;;;;;;9.20;6.93;;;;;;;11.95;74.44;97126.16;5022136;28;20486;-70
2021/04/23 00:10:46;;;;;;;11.85;6.60;;;;;;;11.92;74.49;97127.72;5023262;28;20037;-69
2021/04/23 00:13:12;;;;;;;11.25;6.95;;;;;;;11.91;74.47;97126.13;5023762;28;20029;-68
2021/04/23 00:15:39;;;;;;;12.23;7.35;;;;;;;11.02;75.39;97060.63;5023372;28;20094;-68
2021/04/23 00:18:05;;;;;;;9.52;7.25;;;;;;;11.65;76.57;97134.50;5021972;28;20040;-68
2021/04/23 00:20:30;;;;;;;10.57;7.10;;;;;;;11.37;76.58;97077.78;5023343;28;20045;-68
2021/04/23 00:23:03;;;;;;;12.70;8.18;;;;;;;11.43;76.32;97087.38;5024125;28;20064;-68
2021/04/23 00:25:29;;;;;;;9.43;7.63;;;;;;;11.85;75.20;97137.94;5023312;28;20104;-68
2021/04/23 00:27:56;;;;;;;12.18;7.90;;;;;;;11.81;75.50;97148.19;5021843;28;20060;-67
2021/04/23 00:30:27;;;;;;;15.02;9.50;;;;;;;11.87;75.89;97132.81;5021598;28;20589;-68
2021/04/23 00:32:54;;;;;;;13.50;9.38;;;;;;;10.70;76.49;96977.78;5023775;28;20032;-68
2021/04/23 00:35:31;;;;;;;11.70;9.38;;;;;;;11.84;76.42;97136.31;5023101;28;20431;-68
2021/04/23 00:37:58;;;;;;;15.35;9.45;;;;;;;11.85;75.92;97160.16;5023847;28;20026;-68
2021/04/23 00:40:28;;;;;;;10.73;8.10;;;;;;;11.94;75.71;97141.22;5023044;28;20038;-68
2021/04/23 00:42:55;;;;;;;12.20;9.05;;;;;;;11.96;75.82;97134.13;5023647;28;20038;-68
2021/04/23 00:45:23;;;;;;;9.20;8.15;;;;;;;11.38;76.28;97068.28;5023196;28;20037;-68
2021/04/23 00:47:50;;;;;;;9.98;7.82;;;;;;;11.51;77.10;97089.06;5021760;28;20542;-67
2021/04/23 00:50:39;;;;;;;10.95;8.18;;;;;;;11.93;76.92;97172.94;5022812;28;20125;-68
2021/04/23 00:53:13;;;;;;;10.93;8.15;;;;;;;11.79;76.89;97139.44;5023470;28;20543;-68
2021/04/23 00:55:39;;;;;;;14.77;10.10;;;;;;;12.01;76.65;97158.78;5023491;28;20041;-68
2021/04/23 00:58:08;;;;;;;12.02;8.35;;;;;;;11.51;75.85;97061.31;5023456;28;20056;-68
2021/04/23 01:00:33;;;;;;;15.35;8.45;;;;;;;12.13;74.76;97160.50;5021363;28;20044;-69
2021/04/23 01:02:59;;;;;;;22.27;14.60;;;;;;;11.19;78.79;97104.44;5023219;28;20035;-68
2021/04/23 01:05:34;;;;;;;19.00;11.65;;;;;;;11.72;78.32;97159.56;5022797;28;20060;-69
2021/04/23 01:08:00;;;;;;;15.27;8.95;;;;;;;11.36;77.66;97081.72;5038155;28;20394;-69
2021/04/23 01:10:27;;;;;;;11.23;8.48;;;;;;;11.75;77.40;97158.00;5023298;28;20071;-68
2021/04/23 01:12:53;;;;;;;9.68;6.63;;;;;;;11.77;77.60;97142.59;5023191;28;20041;-69
2021/04/23 01:15:19;;;;;;;9.40;6.20;;;;;;;11.07;78.31;97051.97;5022595;28;20112;-69
2021/04/23 01:17:44;;;;;;;25.02;15.23;;;;;;;11.21;77.99;97116.75;5023133;28;20113;-69
2021/04/23 01:20:10;;;;;;;17.52;10.68;;;;;;;11.62;79.00;97164.91;5020943;28;20045;-69
2021/04/23 01:22:35;;;;;;;9.93;7.85;;;;;;;11.17;78.57;97074.31;5021682;28;20036;-68
2021/04/23 01:25:01;;;;;;;6.97;6.18;;;;;;;11.25;79.49;97130.69;5023352;28;20332;-68
2021/04/23 01:27:27;;;;;;;9.90;6.50;;;;;;;11.23;79.87;97095.00;5022651;28;20026;-69
2021/04/23 01:29:53;;;;;;;9.00;7.15;;;;;;;11.35;79.77;97125.28;5023121;28;20045;-70
2021/04/23 01:32:19;;;;;;;10.90;7.13;;;;;;;11.59;79.53;97149.03;5024003;28;20028;-71
2021/04/23 01:34:45;;;;;;;11.73;6.55;;;;;;;11.59;78.99;97149.03;5025071;28;20041;-70
2021/04/23 01:37:13;;;;;;;9.23;6.10;;;;;;;11.57;79.31;97148.63;5026265;28;20112;-70
2021/04/23 01:39:41;;;;;;;9.82;7.32;;;;;;;11.59;79.09;97147.06;5026707;28;20103;-70
2021/04/23 01:42:10;;;;;;;9.30;7.30;;;;;;;11.45;79.78;97163.50;5024411;28;20116;-71
2021/04/23 01:44:36;;;;;;;8.23;6.50;;;;;;;11.38;79.85;97151.50;5024983;28;20045;-70
2021/04/23 01:47:03;;;;;;;10.23;7.40;;;;;;;11.38;79.62;97154.28;5026599;28;20072;-69
2021/04/23 01:49:29;;;;;;;20.70;11.73;;;;;;;10.63;78.72;97094.03;5026187;28;20049;-69
2021/04/23 01:51:58;;;;;;;15.68;8.32;;;;;;;11.41;79.67;97170.16;5026132;28;20555;-71
2021/04/23 01:54:25;;;;;;;8.95;7.00;;;;;;;11.50;79.32;97149.31;5011974;28;20143;-72
2021/04/23 01:56:51;;;;;;;8.35;6.55;;;;;;;11.31;79.45;97118.09;5025220;28;20425;-70
2021/04/23 01:59:18;;;;;;;10.60;6.75;;;;;;;11.44;78.89;97136.94;5024620;28;20033;-71
2021/04/23 02:01:44;;;;;;;7.13;6.25;;;;;;;11.45;79.75;97146.03;5025758;28;20037;-71
2021/04/23 02:04:12;;;;;;;8.90;6.80;;;;;;;11.51;79.79;97150.09;5022000;28;20531;-72
2021/04/23 02:06:40;;;;;;;17.60;6.75;;;;;;;11.55;79.00;97151.78;5004625;28;20037;-70
2021/04/23 02:09:08;;;;;;;8.35;6.75;;;;;;;11.53;78.76;97147.75;5006148;28;20049;-69
2021/04/23 02:11:34;;;;;;;9.65;6.53;;;;;;;10.91;78.46;97054.13;5006194;28;20180;-68
2021/04/23 02:14:01;;;;;;;8.43;6.13;;;;;;;11.60;78.93;97136.78;5021310;28;20049;-71
2021/04/23 02:16:28;;;;;;;9.40;6.05;;;;;;;11.59;78.40;97146.25;5005712;28;20038;-71
2021/04/23 02:18:54;;;;;;;9.05;6.15;;;;;;;11.73;77.91;97136.19;5006102;28;20128;-71
2021/04/23 02:21:20;;;;;;;13.65;7.90;;;;;;;11.23;77.09;97047.06;5005573;28;20116;-71
2021/04/23 02:23:48;;;;;;;8.00;6.57;;;;;;;11.52;76.32;97085.13;5006462;28;20511;-69
2021/04/23 02:26:14;;;;;;;9.02;6.85;;;;;;;11.89;76.32;97138.78;5005450;28;20037;-70
2021/04/23 02:28:41;;;;;;;10.07;6.68;;;;;;;11.90;76.38;97143.94;5006554;28;20050;-70
2021/04/23 02:31:16;;;;;;;21.33;16.70;;;;;;;11.83;76.77;97135.53;5020056;28;20037;-70
2021/04/23 02:33:44;;;;;;;20.50;16.77;;;;;;;11.85;77.82;97154.59;5006405;28;20534;-69
2021/04/23 02:36:10;;;;;;;10.80;6.68;;;;;;;11.69;78.18;97140.09;5005332;28;20041;-69
2021/04/23 02:38:36;;;;;;;7.65;6.00;;;;;;;11.54;78.71;97116.09;5004262;28;20073;-71
2021/04/23 02:41:04;;;;;;;13.23;7.50;;;;;;;11.67;79.22;97136.88;5005530;28;20069;-70
2021/04/23 02:43:34;;;;;;;16.15;8.65;;;;;;;11.72;78.85;97144.88;5020107;28;20030;-67
2021/04/23 02:46:00;;;;;;;17.50;8.60;;;;;;;11.70;79.50;97155.56;5003543;28;20065;-68
2021/04/23 02:48:30;;;;;;;15.15;7.53;;;;;;;11.79;79.20;97145.78;5020586;28;20590;-69
2021/04/23 02:51:11;;;;;;;8.85;6.95;;;;;;;11.66;79.80;97151.94;5005759;28;21092;-69
2021/04/23 02:53:37;;;;;;;17.25;9.82;;;;;;;11.66;80.23;97151.94;5005946;28;20129;-69
2021/04/23 02:56:05;;;;;;;13.50;8.57;;;;;;;11.50;80.42;97131.84;5003396;28;20033;-68
2021/04/23 02:58:30;;;;;;;13.20;9.43;;;;;;;11.41;80.75;97101.59;5005424;28;20038;-69
2021/04/23 03:01:00;;;;;;;19.02;10.20;;;;;;;11.46;80.78;97094.97;5005304;28;20036;-69
2021/04/23 03:03:27;;;;;;;18.20;11.57;;;;;;;11.46;80.97;97086.63;5003918;28;20063;-69
2021/04/23 03:05:55;;;;;;;22.95;12.90;;;;;;;11.86;80.81;97172.84;5019323;28;20037;-68
2021/04/23 03:08:21;;;;;;;22.15;13.07;;;;;;;11.83;81.67;97168.84;5025194;28;20283;-68
2021/04/23 03:10:56;;;;;;;17.95;11.57;;;;;;;11.45;82.13;97118.31;5022719;28;20029;-69
2021/04/23 03:13:27;;;;;;;19.75;9.32;;;;;;;11.85;81.01;97160.16;5023180;28;20038;-69
2021/04/23 03:15:54;;;;;;;12.35;9.13;;;;;;;11.84;80.54;97141.88;5024451;28;20104;-67
2021/04/23 03:18:22;;;;;;;15.18;9.82;;;;;;;11.90;80.98;97149.50;5025432;28;20429;-69
2021/04/23 03:20:48;;;;;;;14.38;9.82;;;;;;;11.85;81.13;97146.28;5024394;28;20025;-69
2021/04/23 03:23:14;;;;;;;12.40;9.05;;;;;;;11.76;82.38;97145.75;5023135;28;20040;-69
2021/04/23 03:25:40;;;;;;;12.55;9.75;;;;;;;11.76;83.48;97154.09;5024334;28;20033;-69
2021/04/23 03:28:06;;;;;;;18.58;10.02;;;;;;;11.73;83.98;97157.59;5024586;28;20045;-69
2021/04/23 03:30:35;;;;;;;19.38;11.88;;;;;;;11.58;84.75;97169.63;5024403;28;20185;-69
2021/04/23 03:33:01;;;;;;;17.17;11.48;;;;;;;11.38;85.44;97140.41;5039882;28;20092;-70
2021/04/23 03:35:28;;;;;;;14.55;9.98;;;;;;;11.17;86.21;97117.88;5022642;28;20037;-70
2021/04/23 03:37:53;;;;;;;13.15;9.95;;;;;;;10.42;85.30;96987.63;5024572;28;20033;-71
2021/04/23 03:40:23;;;;;;;15.15;9.30;;;;;;;11.58;85.90;97177.94;5023596;28;20048;-69
2021/04/23 03:42:48;;;;;;;11.48;7.93;;;;;;;11.09;85.60;97085.66;5024227;28;20034;-70
2021/04/23 03:45:16;;;;;;;11.25;7.78;;;;;;;11.56;86.36;97174.75;5023927;28;20080;-70
2021/04/23 03:47:43;;;;;;;11.63;8.55;;;;;;;11.40;86.95;97154.69;5024473;28;20859;-71
2021/04/23 03:50:11;;;;;;;10.07;7.75;;;;;;;11.15;88.57;97153.47;5022251;28;20144;-71
2021/04/23 03:52:36;;;;;;;11.18;6.97;;;;;;;11.20;89.25;97147.63;5024124;28;20477;-72
2021/04/23 03:55:08;;;;;;;10.77;7.95;;;;;;;11.54;89.12;97171.56;5023771;28;20095;-71
2021/04/23 03:57:35;;;;;;;14.80;9.73;;;;;;;10.96;88.06;97084.25;5022221;28;20033;-71
2021/04/23 04:00:05;;;;;;;24.88;17.63;;;;;;;11.56;88.12;97197.75;5023754;28;20036;-71
2021/04/23 04:02:31;;;;;;;32.28;19.52;;;;;;;11.55;88.24;97196.16;5023585;28;20041;-72
2021/04/23 04:04:56;;;;;;;50.95;30.70;;;;;;;11.52;88.70;97207.97;5027816;28;20040;-70
2021/04/23 04:07:21;;;;;;;45.33;30.17;;;;;;;11.50;89.90;97210.34;5023564;28;20095;-70
2021/04/23 04:09:47;;;;;;;58.17;34.65;;;;;;;10.97;90.10;97152.41;5023472;28;20033;-72
2021/04/23 04:12:12;;;;;;;57.92;34.83;;;;;;;11.01;90.12;97120.81;5038251;28;20045;-72
2021/04/23 04:14:38;;;;;;;46.83;30.08;;;;;;;11.70;90.20;97213.81;5024074;28;20546;-69
2021/04/23 04:17:03;;;;;;;28.98;19.45;;;;;;;11.50;89.68;97167.91;5023016;28;20145;-71
2021/04/23 04:19:29;;;;;;;19.67;14.38;;;;;;;11.02;88.22;97091.13;5024044;28;20029;-71
2021/04/23 04:21:54;;;;;;;20.20;14.40;;;;;;;11.49;88.22;97180.97;5023244;28;20128;-74
2021/04/23 04:24:19;;;;;;;19.05;12.43;;;;;;;11.83;88.66;97206.91;5023710;28;20126;-71
2021/04/23 04:26:45;;;;;;;18.88;11.90;;;;;;;11.76;89.10;97206.81;5037915;28;20098;-73
2021/04/23 04:29:12;;;;;;;20.08;11.95;;;;;;;11.24;89.19;97129.09;5038660;28;20041;-70
2021/04/23 04:31:38;;;;;;;15.18;9.80;;;;;;;11.61;88.76;97171.66;5023230;28;20099;-74
2021/04/23 04:34:03;;;;;;;15.10;9.10;;;;;;;11.97;87.94;97212.66;5023669;28;20448;-72
2021/04/23 04:36:29;;;;;;;16.42;10.65;;;;;;;12.01;87.47;97219.06;5021340;28;20053;-74
2021/04/23 04:38:54;;;;;;;16.25;11.25;;;;;;;12.16;87.29;97249.44;5023696;28;20160;-72
2021/04/23 04:41:20;;;;;;;17.27;11.82;;;;;;;12.26;87.24;97217.44;5023475;28;20040;-72
2021/04/23 04:43:45;;;;;;;40.63;14.90;;;;;;;12.30;85.54;97225.81;5023828;28;20037;-73
2021/04/23 04:46:11;;;;;;;17.58;12.18;;;;;;;12.22;84.59;97219.34;5038320;28;20087;-72
2021/04/23 04:48:37;;;;;;;25.55;14.55;;;;;;;11.65;85.05;97136.47;5023382;28;20556;-73
2021/04/23 04:51:04;;;;;;;23.05;14.18;;;;;;;12.26;84.92;97245.19;5037720;28;20512;-71
2021/04/23 04:53:33;;;;;;;19.77;13.63;;;;;;;12.32;85.55;97224.25;5023728;28;20132;-72
2021/04/23 04:56:00;;;;;;;24.63;15.38;;;;;;;12.41;85.03;97215.63;5021283;28;20037;-71
2021/04/23 04:58:34;;;;;;;29.45;18.73;;;;;;;12.55;84.43;97215.81;5022055;28;20037;-71
2021/04/23 05:01:03;;;;;;;25.23;18.13;;;;;;;12.70;84.40;97217.56;5023086;28;20041;-71
2021/04/23 05:03:28;;;;;;;53.38;36.97;;;;;;;12.63;84.21;97207.16;5023523;28;20034;-72
2021/04/23 05:05:54;;;;;;;23.92;17.23;;;;;;;12.88;83.62;97227.69;5017896;28;20567;-72
2021/04/23 05:08:19;;;;;;;31.65;25.63;;;;;;;13.03;81.95;97231.47;5006215;28;20037;-70
2021/04/23 05:10:45;;;;;;;25.77;18.63;;;;;;;12.76;81.15;97171.56;5006984;28;20472;-71
2021/04/23 05:13:11;;;;;;;23.50;16.50;;;;;;;13.43;78.66;97212.78;5007803;28;20931;-70
2021/04/23 05:15:36;;;;;;;21.13;15.10;;;;;;;13.16;79.20;97147.38;5021914;28;20038;-68
2021/04/23 05:18:03;;;;;;;32.03;21.33;;;;;;;13.70;78.66;97208.59;5006971;28;20042;-71
2021/04/23 05:20:29;;;;;;;28.27;16.45;;;;;;;13.64;77.81;97251.91;5006746;28;20101;-68
2021/04/23 05:22:55;;;;;;;17.95;13.25;;;;;;;13.92;77.21;97217.13;5022179;28;20489;-70
2021/04/23 05:25:23;;;;;;;13.68;11.02;;;;;;;14.16;75.38;97213.69;5021403;28;20070;-69
2021/04/23 05:27:49;;;;;;;16.20;11.10;;;;;;;14.54;72.69;97205.53;5005491;28;20432;-69
2021/04/23 05:30:18;;;;;;;15.38;10.63;;;;;;;14.76;72.00;97212.03;5021926;28;20120;-71
2021/04/23 05:32:46;;;;;;;22.80;16.77;;;;;;;14.84;71.53;97213.63;5007238;28;20170;-69
2021/04/23 05:35:14;;;;;;;25.02;17.85;;;;;;;14.53;71.66;97172.47;5006612;28;20034;-69
2021/04/23 05:37:39;;;;;;;30.02;22.00;;;;;;;15.05;71.79;97210.88;5007106;28;20038;-70
2021/04/23 05:40:08;;;;;;;30.83;24.73;;;;;;;15.24;71.62;97199.34;5006770;28;20030;-69
2021/04/23 05:42:33;;;;;;;34.90;26.50;;;;;;;14.86;70.63;97121.97;5007021;28;20060;-69
2021/04/23 05:44:59;;;;;;;43.42;27.08;;;;;;;15.43;69.96;97185.06;5006868;28;20501;-70
2021/04/23 05:47:24;;;;;;;45.75;31.73;;;;;;;15.71;69.24;97207.38;5006472;28;20042;-67
2021/04/23 05:49:50;;;;;;;38.83;29.23;;;;;;;15.93;65.93;97208.97;5006707;28;20053;-69
2021/04/23 05:52:16;;;;;;;34.30;24.50;;;;;;;16.07;64.74;97211.75;5020966;28;20334;-68
2021/04/23 05:54:41;;;;;;;25.95;16.67;;;;;;;15.59;65.34;97138.00;5021267;28;20068;-69
2021/04/23 05:57:07;;;;;;;18.35;15.10;;;;;;;16.07;64.32;97208.97;5005895;28;20571;-69
2021/04/23 05:59:33;;;;;;;14.20;8.45;;;;;;;15.84;63.89;97214.16;5006392;28;20022;-69
2021/04/23 06:01:59;;;;;;;9.43;6.80;;;;;;;16.07;63.49;97225.72;5006017;28;20500;-69
2021/04/23 06:04:24;;;;;;;12.77;7.40;;;;;;;15.71;64.57;97207.38;5009489;28;20413;-68
2021/04/23 06:06:50;;;;;;;9.85;6.90;;;;;;;14.35;64.60;97023.94;5025732;28;20034;-70
2021/04/23 06:09:15;;;;;;;8.38;6.68;;;;;;;15.73;65.63;97226.56;5041038;28;20186;-69
2021/04/23 06:11:41;;;;;;;10.82;7.82;;;;;;;15.64;65.44;97235.31;5039268;28;20068;-64
2021/04/23 06:14:07;;;;;;;13.73;8.43;;;;;;;14.87;66.42;97162.66;5022030;28;20039;-70
2021/04/23 06:16:33;;;;;;;9.07;7.93;;;;;;;13.80;66.17;97008.63;5022998;28;20429;-70
2021/04/23 06:18:59;;;;;;;9.77;7.30;;;;;;;15.73;65.79;97249.69;5025532;28;20060;-68
2021/04/23 06:21:24;;;;;;;13.88;7.30;;;;;;;14.99;66.62;97190.97;5024508;28;20033;-69
2021/04/23 06:23:50;;;;;;;13.43;8.30;;;;;;;15.31;66.43;97249.63;5024993;28;20041;-71
2021/04/23 06:26:16;;;;;;;8.57;6.50;;;;;;;14.34;68.97;97195.09;5024995;28;20102;-72
2021/04/23 06:28:45;;;;;;;19.25;10.00;;;;;;;13.57;72.99;97146.09;5025183;28;20034;-71
2021/04/23 06:31:12;;;;;;;10.55;7.25;;;;;;;14.03;73.82;97248.63;5023274;28;20037;-68
2021/04/23 06:33:40;;;;;;;9.55;8.05;;;;;;;13.37;73.84;97141.97;5024887;28;20056;-70
2021/04/23 06:36:06;;;;;;;18.25;11.05;;;;;;;14.12;75.35;97249.09;5024081;28;20036;-70
2021/04/23 06:38:32;;;;;;;13.55;8.98;;;;;;;14.11;73.93;97258.63;5025038;28;20048;-64
2021/04/23 06:40:58;;;;;;;12.45;8.25;;;;;;;12.94;74.96;97058.56;5024214;28;20033;-67
2021/04/23 06:43:24;;;;;;;11.70;7.45;;;;;;;13.20;70.57;97014.69;5024788;28;20497;-65
2021/04/23 06:45:50;;;;;;;9.15;7.10;;;;;;;13.67;70.53;97120.31;5023808;28;20120;-65
2021/04/23 06:48:17;;;;;;;8.68;7.40;;;;;;;14.30;70.54;97250.03;5023510;28;20156;-68
2021/04/23 06:50:42;;;;;;;8.80;6.60;;;;;;;14.31;69.93;97268.34;5024194;28;20033;-68
2021/04/23 06:53:09;;;;;;;9.90;7.70;;;;;;;14.10;69.67;97212.47;5027817;28;20509;-64
2021/04/23 06:55:35;;;;;;;7.95;6.50;;;;;;;14.06;68.92;97194.94;5022609;28;20447;-69
2021/04/23 06:58:00;;;;;;;7.95;7.15;;;;;;;14.80;66.32;97210.03;5023368;28;20099;-69
2021/04/23 07:00:29;;;;;;;11.30;8.68;;;;;;;14.59;64.52;97117.97;5024084;28;20041;-68
2021/04/23 07:02:56;;;;;;;5.68;5.13;;;;;;;15.91;60.37;97258.06;5022682;28;20509;-68
2021/04/23 07:05:23;;;;;;;9.10;5.45;;;;;;;16.28;58.24;97262.00;5023534;28;20030;-64
2021/04/23 07:07:49;;;;;;;5.95;5.35;;;;;;;16.73;56.46;97262.31;5024694;28;20037;-67
2021/04/23 07:10:21;;;;;;;6.93;5.43;;;;;;;16.90;55.36;97256.66;5023691;28;20045;-68
2021/04/23 07:12:46;;;;;;;8.73;6.22;;;;;;;17.31;54.86;97256.88;5024230;28;20527;-68
2021/04/23 07:15:15;;;;;;;10.02;6.72;;;;;;;16.77;53.50;97160.38;5024223;28;20104;-67
2021/04/23 07:17:42;;;;;;;5.38;4.82;;;;;;;17.35;53.26;97266.03;5021670;28;20037;-67
2021/04/23 07:20:09;;;;;;;6.20;5.65;;;;;;;16.82;53.01;97175.97;5022197;28;20029;-67
2021/04/23 07:22:34;;;;;;;23.83;19.10;;;;;;;17.51;53.34;97257.97;5024381;28;20128;-66
2021/04/23 07:25:00;;;;;;;8.45;6.30;;;;;;;17.37;52.65;97247.59;5022365;28;20423;-71
2021/04/23 07:27:25;;;;;;;143.45;59.55;;;;;;;17.72;52.64;97260.63;5020318;28;20303;-67
2021/04/23 07:29:51;;;;;;;15.90;9.48;;;;;;;17.99;52.13;97261.59;5037577;28;20038;-65
2021/04/23 07:32:16;;;;;;;6.60;5.32;;;;;;;18.18;50.71;97261.00;5022618;28;20053;-66
2021/04/23 07:34:42;;;;;;;7.85;7.00;;;;;;;17.25;51.73;97122.09;5022757;28;20033;-68
2021/04/23 07:37:07;;;;;;;6.43;5.82;;;;;;;18.27;51.21;97260.53;5021931;28;20045;-65
2021/04/23 07:39:33;;;;;;;6.45;5.70;;;;;;;18.14;50.28;97229.41;5023886;28;20029;-66
2021/04/23 07:42:00;;;;;;;5.70;5.20;;;;;;;18.41;48.63;97261.25;5023631;28;20094;-66
2021/04/23 07:44:26;;;;;;;8.25;5.40;;;;;;;18.29;49.21;97224.47;5021843;28;20065;-67
2021/04/23 07:46:53;;;;;;;5.22;4.72;;;;;;;18.71;47.37;97236.06;5022967;28;20136;-64
2021/04/23 07:49:19;;;;;;;5.03;4.53;;;;;;;18.64;48.36;97229.72;5023057;28;20060;-72
2021/04/23 07:51:44;;;;;;;5.38;4.78;;;;;;;18.19;46.87;97113.22;5022143;28;20029;-68
2021/04/23 07:54:10;;;;;;;5.30;4.82;;;;;;;19.29;46.99;97255.38;5021450;28;20044;-66
2021/04/23 07:56:37;;;;;;;4.85;4.45;;;;;;;18.89;46.70;97219.78;5021878;28;20575;-69
2021/04/23 07:59:04;;;;;;;5.18;4.68;;;;;;;19.19;45.78;97228.19;5022944;28;20045;-68
2021/04/23 08:01:31;;;;;;;7.78;5.75;;;;;;;19.85;45.35;97258.56;5023133;28;20033;-64
2021/04/23 08:03:57;;;;;;;7.68;5.20;;;;;;;20.07;44.98;97252.19;5023983;28;20100;-65
2021/04/23 08:06:22;;;;;;;5.95;5.43;;;;;;;18.38;45.07;96998.41;5022884;28;20560;-69
2021/04/23 08:08:48;;;;;;;6.18;5.15;;;;;;;20.20;43.29;97258.03;5023370;28;20120;-63
2021/04/23 08:11:14;;;;;;;4.82;4.45;;;;;;;19.41;44.14;97189.41;5021455;28;20041;-68
2021/04/23 08:13:39;;;;;;;4.82;4.32;;;;;;;19.31;44.57;97176.31;5023414;28;20041;-66
2021/04/23 08:16:05;;;;;;;6.72;4.45;;;;;;;19.88;43.92;97268.97;5022407;28;20029;-65
2021/04/23 08:18:34;;;;;;;4.65;4.35;;;;;;;19.85;44.60;97253.75;5021484;28;20236;-66
2021/04/23 08:21:00;;;;;;;5.10;4.53;;;;;;;19.53;45.51;97214.91;5022492;28;20052;-64
2021/04/23 08:23:26;;;;;;;7.05;6.40;;;;;;;19.59;45.14;97223.63;5021143;28;20987;-63
2021/04/23 08:25:56;;;;;;;6.22;4.80;;;;;;;19.77;44.52;97243.03;5022413;28;20030;-66
2021/04/23 08:28:22;;;;;;;5.85;5.10;;;;;;;19.72;43.33;97164.81;5023304;28;20094;-64
2021/04/23 08:30:47;;;;;;;5.00;4.60;;;;;;;20.19;42.56;97250.78;5021959;28;20041;-67
2021/04/23 08:33:12;;;;;;;4.93;4.53;;;;;;;20.24;42.90;97236.25;5015515;28;20060;-64
2021/04/23 08:35:38;;;;;;;4.63;4.20;;;;;;;19.89;42.46;97118.72;5018155;28;20029;-63
2021/04/23 08:38:03;;;;;;;6.80;4.03;;;;;;;20.58;41.19;97251.66;5022405;28;20068;-69
2021/04/23 08:40:29;;;;;;;5.13;4.72;;;;;;;20.21;41.84;97200.53;5020838;28;20033;-68
2021/04/23 08:42:54;;;;;;;4.45;4.15;;;;;;;18.49;40.82;96917.69;5024221;28;20064;-66
2021/04/23 08:45:22;;;;;;;4.63;4.22;;;;;;;20.09;41.33;97179.41;5025949;28;20033;-69
2021/04/23 08:47:48;;;;;;;6.65;4.50;;;;;;;20.47;41.96;97216.53;5025406;28;20045;-69
2021/04/23 08:50:15;;;;;;;5.55;4.80;;;;;;;20.89;40.40;97232.56;5026642;28;20049;-69
2021/04/23 08:52:44;;;;;;;4.78;4.40;;;;;;;19.87;41.90;97248.47;5024980;28;20099;-67
2021/04/23 08:55:12;;;;;;;4.63;4.22;;;;;;;18.29;43.22;97242.06;5026838;28;20085;-68
2021/04/23 08:57:37;;;;;;;4.47;4.07;;;;;;;19.86;42.65;97243.28;5026347;28;20039;-72
2021/04/23 09:00:06;;;;;;;4.55;4.10;;;;;;;20.32;41.91;97209.56;5026740;28;20507;-68
2021/04/23 09:02:33;;;;;;;4.75;4.30;;;;;;;20.90;40.59;97239.78;5026608;28;20484;-65
2021/04/23 09:05:00;;;;;;;5.15;4.65;;;;;;;20.27;41.67;97241.00;5024392;28;20467;-70
2021/04/23 09:07:25;;;;;;;5.38;4.45;;;;;;;19.94;42.14;97241.94;5041021;28;20194;-65
2021/04/23 09:09:51;;;;;;;4.60;4.20;;;;;;;19.65;43.24;97243.63;5026220;28;20648;-68
2021/04/23 09:12:25;;;;;;;4.60;4.10;;;;;;;20.11;41.41;97133.97;5025255;28;20041;-65
2021/04/23 09:14:53;;;;;;;4.32;3.88;;;;;;;21.10;40.23;97226.53;5011638;28;20440;-68
2021/04/23 09:17:24;;;;;;;4.65;3.45;;;;;;;21.05;40.16;97227.03;5024158;28;20040;-66
2021/04/23 09:19:53;;;;;;;4.93;4.53;;;;;;;20.26;41.69;97189.59;5026079;28;20033;-67
2021/04/23 09:22:32;;;;;;;5.25;4.75;;;;;;;19.58;42.94;97181.91;5024145;28;20037;-67
2021/04/23 09:25:09;;;;;;;4.07;3.78;;;;;;;18.51;44.78;97225.88;5011978;28;20091;-63
2021/04/23 09:27:38;;;;;;;4.82;4.43;;;;;;;18.32;45.22;97162.72;5025449;28;20037;-64
2021/04/23 09:30:07;;;;;;;4.20;3.88;;;;;;;17.74;45.10;97132.09;5023879;28;20424;-67
2021/04/23 09:32:38;;;;;;;4.90;4.50;;;;;;;18.82;44.78;97224.69;5024859;28;20124;-66
2021/04/23 09:35:14;;;;;;;4.63;4.32;;;;;;;18.92;44.38;97227.34;5025078;28;20037;-68
2021/04/23 09:37:48;;;;;;;5.05;4.55;;;;;;;18.55;44.45;97176.91;5024868;28;20056;-68
2021/04/23 09:40:22;;;;;;;5.53;4.97;;;;;;;19.62;44.07;97216.38;5022715;28;20124;-68
2021/04/23 09:42:56;;;;;;;5.00;4.60;;;;;;;19.65;44.20;97226.78;5025043;28;20518;-68
2021/04/23 09:45:33;;;;;;;8.32;4.72;;;;;;;19.86;43.99;97229.22;5038894;28;20438;-65
2021/04/23 09:48:00;;;;;;;4.82;4.40;;;;;;;18.45;45.54;97155.38;5024625;28;20488;-65
2021/04/23 09:50:33;;;;;;;4.72;4.18;;;;;;;18.68;46.13;97203.22;5022984;28;20041;-66
2021/04/23 09:52:59;;;;;;;13.07;4.78;;;;;;;18.33;46.79;97169.94;5023934;28;20432;-66
2021/04/23 09:55:28;;;;;;;4.55;4.15;;;;;;;18.26;48.07;97219.69;5023983;28;20032;-64
2021/04/23 09:57:56;;;;;;;3.47;3.28;;;;;;;17.42;47.40;97069.97;5026034;28;20082;-64
2021/04/23 10:00:25;;;;;;;3.85;3.28;;;;;;;18.11;48.68;97242.25;5025477;28;20370;-67
2021/04/23 10:02:59;;;;;;;3.17;2.72;;;;;;;18.17;47.92;97244.59;5023652;28;20046;-67
2021/04/23 10:05:28;;;;;;;3.63;3.28;;;;;;;17.64;49.90;97245.06;5025361;28;20407;-66
2021/04/23 10:07:54;;;;;;;3.35;3.05;;;;;;;16.43;49.33;97003.56;5025872;28;20064;-69
2021/04/23 10:10:20;;;;;;;3.95;3.20;;;;;;;16.88;48.29;97045.63;5025040;28;20488;-63
2021/04/23 10:12:53;;;;;;;3.38;2.95;;;;;;;16.33;49.48;97053.91;5025748;28;20040;-63
2021/04/23 10:15:32;;;;;;;3.60;3.40;;;;;;;17.90;48.93;97227.63;5024924;28;20112;-65
2021/04/23 10:18:00;;;;;;;4.47;3.80;;;;;;;17.32;49.31;97166.84;5025565;28;20065;-63
2021/04/23 10:20:31;;;;;;;12.70;4.18;;;;;;;17.67;49.55;97238.66;5023322;28;20897;-65
2021/04/23 10:22:58;;;;;;;3.58;3.30;;;;;;;17.26;50.05;97241.28;5025170;28;20041;-64
2021/04/23 10:25:26;;;;;;;3.55;3.28;;;;;;;15.60;51.61;97038.28;5024745;28;20115;-62
2021/04/23 10:27:53;;;;;;;3.33;3.10;;;;;;;16.92;51.61;97247.84;5025527;28;20480;-66
2021/04/23 10:30:21;;;;;;;3.40;3.20;;;;;;;17.00;51.29;97269.00;5021125;28;20029;-65
2021/04/23 10:32:48;;;;;;;8.15;5.65;;;;;;;17.49;50.78;97249.16;5005821;28;20056;-67
2021/04/23 10:35:14;;;;;;;3.75;3.45;;;;;;;17.24;50.96;97248.50;5015419;28;20040;-63
2021/04/23 10:37:41;;;;;;;4.25;3.85;;;;;;;17.05;51.29;97247.00;5034775;28;20412;-67
2021/04/23 10:40:07;;;;;;;3.97;3.63;;;;;;;16.42;52.34;97252.81;5022339;28;20456;-67
2021/04/23 10:42:51;;;;;;;3.97;3.58;;;;;;;16.35;52.95;97192.13;5024279;28;20484;-64
2021/04/23 10:45:28;;;;;;;3.90;3.60;;;;;;;16.92;52.00;97253.47;5030796;28;20049;-66
2021/04/23 10:47:56;;;;;;;3.95;3.47;;;;;;;16.82;51.44;97259.91;5023414;28;20519;-63
2021/04/23 10:50:37;;;;;;;4.97;4.47;;;;;;;16.77;51.08;97213.53;5023280;28;20038;-63
2021/04/23 10:53:04;;;;;;;4.20;3.80;;;;;;;16.78;52.26;97247.91;5022011;28;20045;-66
2021/04/23 10:55:35;;;;;;;4.65;4.00;;;;;;;17.09;51.02;97246.97;5021589;28;20565;-68
2021/04/23 10:58:01;;;;;;;4.38;3.78;;;;;;;17.01;51.42;97245.44;5024546;28;20069;-63
2021/04/23 11:00:33;;;;;;;4.35;3.95;;;;;;;16.81;51.98;97241.50;5023606;28;20076;-64
2021/04/23 11:03:20;;;;;;;4.22;3.80;;;;;;;17.22;51.58;97246.09;5024902;28;20038;-67
2021/04/23 11:05:46;;;;;;;4.05;3.67;;;;;;;16.45;51.05;97109.44;5033354;28;20493;-66
2021/04/23 11:08:12;;;;;;;4.53;4.10;;;;;;;17.32;51.12;97233.25;5019345;28;20096;-66
2021/04/23 11:11:08;;;;;;;4.53;4.13;;;;;;;17.70;49.75;97237.81;5023008;28;21437;-63
2021/04/23 11:13:38;;;;;;;4.95;4.13;;;;;;;17.69;49.99;97253.03;5024411;28;20065;-70
2021/04/23 11:16:23;;;;;;;5.00;4.40;;;;;;;18.45;47.80;97238.72;5038589;28;20401;-64
2021/04/23 11:18:51;;;;;;;5.43;4.05;;;;;;;18.58;47.08;97237.81;5024752;28;20107;-65
2021/04/23 11:21:26;;;;;;;4.03;3.75;;;;;;;19.23;44.98;97259.06;5023343;28;20037;-66
2021/04/23 11:24:23;;;;;;;4.07;3.78;;;;;;;19.80;43.63;97247.81;5024333;28;20087;-65
2021/04/23 11:27:02;;;;;;;6.22;3.85;;;;;;;19.43;44.08;97249.56;5023935;28;20037;-68
2021/04/23 11:29:32;;;;;;;5.95;3.95;;;;;;;19.52;44.65;97252.63;5024509;28;20034;-60